createdAt,value
2018-06-05T00:02:05.002Z,16.80
2018-06-05T00:04:36.104Z,16.70
2018-06-05T00:07:07.854Z,16.70
2018-06-05T00:09:39.924Z,16.60
2018-06-05T00:12:10.963Z,16.60
2018-06-05T00:14:42.353Z,16.50
2018-06-05T00:17:15.181Z,16.50
2018-06-05T00:19:46.515Z,16.50
2018-06-05T00:22:18.206Z,16.50
2018-06-05T00:24:50.647Z,16.60
2018-06-05T00:27:23.101Z,16.70
2018-06-05T00:29:54.264Z,16.70
2018-06-05T00:32:25.563Z,16.70
2018-06-05T00:34:57.609Z,16.70
2018-06-05T00:37:29.111Z,16.60
2018-06-05T00:40:01.577Z,16.70
2018-06-05T00:42:33.861Z,16.60
2018-06-05T00:45:05.127Z,16.60
2018-06-05T00:47:36.295Z,16.60
2018-06-05T00:50:07.865Z,16.60
2018-06-05T00:52:39.109Z,16.50
2018-06-05T00:55:10.329Z,16.50
2018-06-05T00:57:41.916Z,16.60
2018-06-05T01:00:15.480Z,16.60
2018-06-05T01:02:47.752Z,16.60
2018-06-05T01:05:20.309Z,16.70
2018-06-05T01:07:52.217Z,16.70
2018-06-05T01:10:23.424Z,16.70
2018-06-05T01:12:54.900Z,16.70
2018-06-05T01:15:26.841Z,16.80
2018-06-05T01:17:58.488Z,16.80
2018-06-05T01:20:30.419Z,16.80
2018-06-05T01:23:01.216Z,16.80
2018-06-05T01:25:32.432Z,16.80
2018-06-05T01:28:03.891Z,16.70
2018-06-05T01:30:35.494Z,16.70
2018-06-05T01:33:08.418Z,16.50
2018-06-05T01:35:40.241Z,16.40
2018-06-05T01:38:11.793Z,16.30
2018-06-05T01:40:42.885Z,16.30
2018-06-05T01:43:14.503Z,16.20
2018-06-05T01:45:45.425Z,16.10
2018-06-05T01:48:17.677Z,16.10
2018-06-05T01:50:49.133Z,16.00
2018-06-05T01:53:20.890Z,16.00
2018-06-05T01:55:52.311Z,16.00
2018-06-05T01:58:23.183Z,16.00
2018-06-05T02:00:55.419Z,15.90
2018-06-05T02:03:27.075Z,15.90
2018-06-05T02:05:59.589Z,15.90
2018-06-05T02:08:30.861Z,15.80
2018-06-05T02:11:01.997Z,15.80
2018-06-05T02:13:33.094Z,15.80
2018-06-05T02:16:04.351Z,15.80
2018-06-05T02:18:35.665Z,15.80
2018-06-05T02:21:06.942Z,15.70
2018-06-05T02:23:39.143Z,15.70
2018-06-05T02:26:09.994Z,15.60
2018-06-05T02:28:41.997Z,15.50
2018-06-05T02:33:43.593Z,15.50
2018-06-05T02:36:14.661Z,15.50
2018-06-05T02:38:46.715Z,15.50
2018-06-05T02:41:18.929Z,15.50
2018-06-05T02:43:50.132Z,15.50
2018-06-05T02:46:21.591Z,15.40
2018-06-05T02:48:52.823Z,15.40
2018-06-05T02:51:23.845Z,15.30
2018-06-05T02:53:55.203Z,15.20
2018-06-05T02:56:26.544Z,15.20
2018-06-05T02:58:59.152Z,15.10
2018-06-05T03:01:30.461Z,15.00
2018-06-05T03:04:01.782Z,15.00
2018-06-05T03:06:33.076Z,15.00
2018-06-05T03:09:04.467Z,15.00
2018-06-05T03:11:35.619Z,15.00
2018-06-05T03:14:07.883Z,14.90
2018-06-05T03:16:39.841Z,14.90
2018-06-05T03:19:11.213Z,14.90
2018-06-05T03:21:42.325Z,14.90
2018-06-05T03:24:14.878Z,14.90
2018-06-05T03:27:29.773Z,14.90
2018-06-05T03:30:02.104Z,14.90
2018-06-05T03:32:33.525Z,14.80
2018-06-05T03:35:04.664Z,14.80
2018-06-05T03:37:36.145Z,14.80
2018-06-05T03:40:07.270Z,14.80
2018-06-05T03:42:38.325Z,14.70
2018-06-05T03:45:09.338Z,14.70
2018-06-05T03:50:12.114Z,14.60
2018-06-05T03:52:43.510Z,14.60
2018-06-05T03:55:15.020Z,14.60
2018-06-05T03:57:46.081Z,14.60
2018-06-05T04:00:17.789Z,14.60
2018-06-05T04:02:49.600Z,14.60
2018-06-05T04:05:22.253Z,14.60
2018-06-05T04:07:53.283Z,14.70
2018-06-05T04:12:54.835Z,14.80
2018-06-05T04:15:26.177Z,14.90
2018-06-05T04:21:15.909Z,15.00
2018-06-05T04:23:47.112Z,15.30
2018-06-05T04:26:19.327Z,15.40
2018-06-05T04:28:50.297Z,15.50
2018-06-05T04:31:21.551Z,15.60
2018-06-05T04:33:52.506Z,15.70
2018-06-05T04:36:24.621Z,15.80
2018-06-05T04:38:55.812Z,16.10
2018-06-05T04:44:00.092Z,16.20
2018-06-05T04:46:31.173Z,16.50
2018-06-05T04:49:02.446Z,16.60
2018-06-05T04:51:34.626Z,16.80
2018-06-05T04:54:05.851Z,17.00
2018-06-05T04:56:37.101Z,17.30
2018-06-05T04:59:08.947Z,17.30
2018-06-05T05:01:40.204Z,17.40
2018-06-05T05:04:11.374Z,17.50
2018-06-05T05:06:42.773Z,17.40
2018-06-05T05:09:15.535Z,17.30
2018-06-05T05:11:46.728Z,17.40
2018-06-05T05:14:18.166Z,17.50
2018-06-05T05:16:49.176Z,17.60
2018-06-05T05:19:20.705Z,17.70
2018-06-05T05:21:51.924Z,17.50
2018-06-05T05:24:23.370Z,17.40
2018-06-05T05:26:55.726Z,17.20
2018-06-05T05:29:27.889Z,17.30
2018-06-05T05:31:58.733Z,17.50
2018-06-05T05:37:00.683Z,17.80
2018-06-05T05:39:31.772Z,17.90
2018-06-05T05:42:03.413Z,18.00
2018-06-05T05:44:35.320Z,18.10
2018-06-05T05:47:06.481Z,18.30
2018-06-05T05:49:37.820Z,18.50
2018-06-05T05:52:09.577Z,18.70
2018-06-05T05:54:40.841Z,18.80
2018-06-05T05:57:11.856Z,18.70
2018-06-05T05:59:43.701Z,18.90
2018-06-05T06:02:15.676Z,18.90
2018-06-05T06:04:47.729Z,19.00
2018-06-05T06:07:19.076Z,19.10
2018-06-05T06:09:53.541Z,19.00
2018-06-05T06:12:24.848Z,19.00
2018-06-05T06:14:56.920Z,18.90
2018-06-05T06:17:28.421Z,19.10
2018-06-05T06:20:00.571Z,19.20
2018-06-05T06:22:31.607Z,19.30
2018-06-05T06:25:02.602Z,19.50
2018-06-05T06:27:33.683Z,19.60
2018-06-05T06:30:05.059Z,19.70
2018-06-05T06:32:37.133Z,19.70
2018-06-05T06:35:08.620Z,19.70
2018-06-05T06:37:39.973Z,19.70
2018-06-05T06:40:11.745Z,19.60
2018-06-05T06:42:42.885Z,19.90
2018-06-05T06:45:14.425Z,20.10
2018-06-05T06:47:46.038Z,20.20
2018-06-05T06:50:18.110Z,20.30
2018-06-05T06:52:50.189Z,20.40
2018-06-05T06:55:21.350Z,20.40
2018-06-05T06:57:53.139Z,20.40
2018-06-05T07:00:25.391Z,20.20
2018-06-05T07:02:58.039Z,20.20
2018-06-05T07:05:31.829Z,20.20
2018-06-05T07:08:02.898Z,20.10
2018-06-05T07:10:34.233Z,20.20
2018-06-05T07:13:08.075Z,20.30
2018-06-05T07:15:39.692Z,20.30
2018-06-05T07:18:11.509Z,20.20
2018-06-05T07:20:43.684Z,20.20
2018-06-05T07:23:16.135Z,20.30
2018-06-05T07:25:55.463Z,20.40
2018-06-05T07:28:26.810Z,20.50
2018-06-05T07:30:58.192Z,20.50
2018-06-05T07:33:31.383Z,20.60
2018-06-05T07:36:03.033Z,20.60
2018-06-05T07:41:05.842Z,20.60
2018-06-05T07:43:37.702Z,20.50
2018-06-05T07:46:09.017Z,20.70
2018-06-05T07:48:41.032Z,20.60
2018-06-05T07:51:12.986Z,20.80
2018-06-05T07:53:44.300Z,20.80
2018-06-05T07:56:15.639Z,20.80
2018-06-05T07:58:46.950Z,21.00
2018-06-05T08:01:19.250Z,21.00
2018-06-05T08:03:50.781Z,21.00
2018-06-05T08:06:22.779Z,21.20
2018-06-05T08:08:55.011Z,21.20
2018-06-05T08:11:26.179Z,21.30
2018-06-05T08:13:58.541Z,21.40
2018-06-05T08:16:30.873Z,21.50
2018-06-05T08:19:02.731Z,21.70
2018-06-05T08:21:34.281Z,21.80
2018-06-05T08:24:06.692Z,21.90
2018-06-05T08:29:28.354Z,22.60
2018-06-05T08:32:00.521Z,23.00
2018-06-05T08:34:32.301Z,23.60
2018-06-05T08:37:03.956Z,24.30
2018-06-05T08:39:35.994Z,25.30
2018-06-05T08:42:07.634Z,25.90
2018-06-05T08:44:39.958Z,26.30
2018-06-05T08:47:12.224Z,26.30
2018-06-05T08:49:44.226Z,26.80
2018-06-05T08:52:15.623Z,27.40
2018-06-05T08:54:46.778Z,27.70
2018-06-05T08:57:19.294Z,27.90
2018-06-05T08:59:51.086Z,28.20
2018-06-05T09:02:22.896Z,27.90
2018-06-05T09:04:56.372Z,27.70
2018-06-05T09:07:27.596Z,27.50
2018-06-05T09:09:59.165Z,27.20
2018-06-05T09:12:30.341Z,27.90
2018-06-05T09:15:01.651Z,28.20
2018-06-05T09:17:32.837Z,28.60
2018-06-05T09:20:04.841Z,28.80
2018-06-05T09:22:37.838Z,29.20
2018-06-05T09:25:09.541Z,29.20
2018-06-05T09:27:41.603Z,29.30
2018-06-05T09:30:12.707Z,29.70
2018-06-05T09:32:43.913Z,29.90
2018-06-05T09:35:15.254Z,29.50
2018-06-05T09:37:48.116Z,29.10
2018-06-05T09:40:19.762Z,28.50
2018-06-05T09:42:51.369Z,29.00
2018-06-05T09:45:22.716Z,29.30
2018-06-05T09:47:53.823Z,29.50
2018-06-05T09:50:25.194Z,29.90
2018-06-05T09:52:56.789Z,30.30
2018-06-05T09:55:29.406Z,30.10
2018-06-05T09:58:01.958Z,30.30
2018-06-05T10:00:38.770Z,30.40
2018-06-05T10:03:10.031Z,30.20
2018-06-05T10:05:42.222Z,29.80
2018-06-05T10:08:14.448Z,30.10
2018-06-05T10:10:46.378Z,30.70
2018-06-05T10:13:18.146Z,31.10
2018-06-05T10:15:49.473Z,31.10
2018-06-05T10:18:29.269Z,30.80
2018-06-05T10:21:01.771Z,30.00
2018-06-05T10:23:33.715Z,30.10
2018-06-05T10:26:05.190Z,30.30
2018-06-05T10:31:08.263Z,28.40
2018-06-05T10:33:39.471Z,28.00
2018-06-05T10:36:11.859Z,28.70
2018-06-05T10:38:44.238Z,29.20
2018-06-05T10:41:16.560Z,29.30
2018-06-05T10:46:18.989Z,29.00
2018-06-05T10:48:50.198Z,28.80
2018-06-05T10:51:22.240Z,29.30
2018-06-05T10:53:54.460Z,29.90
2018-06-05T10:56:26.551Z,30.50
2018-06-05T10:58:59.088Z,31.10
2018-06-05T11:01:33.264Z,31.40
2018-06-05T11:04:04.773Z,31.30
2018-06-05T11:06:36.231Z,31.60
2018-06-05T11:09:10.135Z,31.20
2018-06-05T11:11:41.754Z,31.90
2018-06-05T11:14:12.893Z,31.70
2018-06-05T11:16:45.053Z,31.70
2018-06-05T11:19:16.930Z,32.10
2018-06-05T11:21:48.927Z,31.90
2018-06-05T11:24:22.177Z,32.00
2018-06-05T11:26:54.204Z,32.00
2018-06-05T11:29:25.415Z,32.10
2018-06-05T11:31:57.311Z,32.20
2018-06-05T11:34:29.677Z,32.40
2018-06-05T11:37:01.690Z,32.80
2018-06-05T11:39:33.699Z,32.70
2018-06-05T11:42:07.367Z,32.40
2018-06-05T11:44:39.492Z,32.70
2018-06-05T11:47:12.329Z,32.30
2018-06-05T11:49:44.249Z,32.00
2018-06-05T11:52:16.429Z,32.40
2018-06-05T11:54:49.944Z,32.50
2018-06-05T11:57:23.249Z,32.20
2018-06-05T11:59:54.945Z,32.10
2018-06-05T12:02:28.954Z,32.10
2018-06-05T12:05:00.797Z,32.40
2018-06-05T12:07:32.733Z,32.20
2018-06-05T12:10:05.751Z,31.90
2018-06-05T12:12:38.013Z,32.30
2018-06-05T12:15:09.688Z,32.20
2018-06-05T12:17:41.203Z,32.00
2018-06-05T12:20:12.566Z,31.50
2018-06-05T12:22:44.092Z,32.20
2018-06-05T12:27:47.371Z,32.70
2018-06-05T12:30:19.618Z,32.80
2018-06-05T12:32:52.161Z,33.00
2018-06-05T12:35:24.194Z,33.20
2018-06-05T12:37:56.186Z,33.10
2018-06-05T12:40:27.897Z,33.30
2018-06-05T12:42:59.387Z,33.40
2018-06-05T12:45:31.421Z,33.00
2018-06-05T12:48:03.205Z,33.10
2018-06-05T12:50:35.849Z,32.70
2018-06-05T12:53:07.817Z,32.40
2018-06-05T12:55:40.103Z,32.50
2018-06-05T12:58:11.936Z,32.80
2018-06-05T13:03:15.689Z,32.80
2018-06-05T13:05:48.990Z,31.90
2018-06-05T13:08:23.018Z,32.30
2018-06-05T13:10:55.298Z,32.70
2018-06-05T13:13:28.955Z,32.90
2018-06-05T13:16:04.358Z,33.00
2018-06-05T13:18:35.640Z,32.80
2018-06-05T13:21:07.603Z,32.20
2018-06-05T13:23:39.679Z,31.60
2018-06-05T13:26:11.020Z,31.50
2018-06-05T13:28:43.301Z,31.70
2018-06-05T13:31:15.098Z,31.20
2018-06-05T13:33:46.501Z,30.80
2018-06-05T13:36:18.933Z,30.30
2018-06-05T13:38:51.335Z,30.00
2018-06-05T13:41:23.558Z,29.60
2018-06-05T13:43:55.978Z,29.60
2018-06-05T13:46:28.303Z,29.80
2018-06-05T13:48:59.759Z,30.60
2018-06-05T13:51:33.201Z,31.20
2018-06-05T13:54:04.296Z,31.70
2018-06-05T13:56:36.376Z,32.20
2018-06-05T13:59:07.889Z,32.40
2018-06-05T14:01:40.622Z,32.40
2018-06-05T14:04:12.446Z,32.50
2018-06-05T14:06:43.592Z,32.50
2018-06-05T14:09:15.738Z,32.30
2018-06-05T14:11:47.873Z,31.40
2018-06-05T14:14:19.411Z,31.40
2018-06-05T14:16:51.807Z,31.40
2018-06-05T14:19:24.382Z,30.90
2018-06-05T14:21:56.289Z,30.60
2018-06-05T14:24:28.422Z,30.40
2018-06-05T14:27:01.002Z,30.90
2018-06-05T14:29:32.887Z,31.20
2018-06-05T14:32:04.808Z,31.20
2018-06-05T14:34:38.123Z,30.90
2018-06-05T14:37:09.590Z,30.70
2018-06-05T14:39:42.282Z,30.50
2018-06-05T14:42:14.318Z,30.40
2018-06-05T14:44:46.365Z,30.50
2018-06-05T14:47:24.725Z,30.80
2018-06-05T14:49:56.110Z,30.50
2018-06-05T14:52:27.872Z,30.70
2018-06-05T14:54:59.776Z,30.50
2018-06-05T14:57:31.509Z,28.90
2018-06-05T15:00:03.664Z,28.00
2018-06-05T15:02:35.670Z,27.50
2018-06-05T15:05:09.220Z,27.30
2018-06-05T15:10:12.510Z,27.50
2018-06-05T15:15:16.370Z,27.30
2018-06-05T15:17:47.939Z,27.30
2018-06-05T15:22:51.169Z,27.70
2018-06-05T15:25:22.816Z,27.90
2018-06-05T15:27:55.204Z,28.00
2018-06-05T15:30:26.711Z,28.20
2018-06-05T15:32:58.252Z,28.20
2018-06-05T15:35:30.139Z,28.20
2018-06-05T15:38:02.668Z,28.10
2018-06-05T15:40:34.098Z,28.00
2018-06-05T15:43:05.923Z,27.70
2018-06-05T15:45:37.897Z,27.50
2018-06-05T15:48:10.000Z,26.60
2018-06-05T15:50:41.537Z,26.20
2018-06-05T15:53:14.868Z,25.50
2018-06-05T15:58:17.253Z,24.30
2018-06-05T16:00:49.038Z,23.80
2018-06-05T16:03:20.538Z,23.50
2018-06-05T16:05:52.248Z,23.60
2018-06-05T16:08:23.992Z,23.80
2018-06-05T16:10:56.934Z,23.80
2018-06-05T16:13:28.386Z,23.70
2018-06-05T16:16:00.283Z,23.90
2018-06-05T16:18:32.481Z,24.00
2018-06-05T16:21:04.004Z,24.00
2018-06-05T16:28:38.656Z,24.20
2018-06-05T16:31:10.068Z,24.20
2018-06-05T16:33:41.610Z,24.20
2018-06-05T16:36:12.929Z,24.10
2018-06-05T16:38:44.731Z,24.30
2018-06-05T16:41:16.085Z,24.20
2018-06-05T16:43:48.973Z,24.20
2018-06-05T16:46:20.229Z,24.30
2018-06-05T16:48:51.446Z,24.30
2018-06-05T16:51:23.319Z,24.40
2018-06-05T16:53:54.521Z,24.40
2018-06-05T16:56:25.900Z,24.40
2018-06-05T17:01:29.190Z,24.50
2018-06-05T17:04:01.268Z,24.60
2018-06-05T17:06:33.361Z,24.70
2018-06-05T17:09:08.185Z,24.90
2018-06-05T17:11:41.834Z,25.00
2018-06-05T17:14:17.239Z,25.30
2018-06-05T17:16:51.489Z,25.30
2018-06-05T17:19:24.567Z,25.30
2018-06-05T17:24:27.573Z,25.30
2018-06-05T17:26:59.118Z,25.50
2018-06-05T17:29:30.594Z,25.50
2018-06-05T17:32:02.546Z,25.60
2018-06-05T17:34:34.327Z,25.60
2018-06-05T17:37:05.821Z,25.50
2018-06-05T17:39:37.882Z,25.50
2018-06-05T17:42:10.471Z,25.40
2018-06-05T17:44:43.438Z,25.60
2018-06-05T17:47:16.080Z,25.80
2018-06-05T17:49:49.387Z,25.90
2018-06-05T17:52:21.434Z,25.90
2018-06-05T17:54:52.843Z,26.00
2018-06-05T17:57:28.218Z,26.10
2018-06-05T18:00:01.003Z,26.00
2018-06-05T18:02:32.520Z,26.00
2018-06-05T18:05:05.028Z,25.90
2018-06-05T18:07:37.974Z,25.80
2018-06-05T18:10:12.611Z,25.70
2018-06-05T18:12:46.037Z,25.70
2018-06-05T18:17:53.535Z,25.40
2018-06-05T18:20:27.018Z,25.40
2018-06-05T18:23:00.095Z,25.30
2018-06-05T18:25:32.460Z,25.20
2018-06-05T18:28:05.281Z,25.10
2018-06-05T18:30:37.196Z,25.10
2018-06-05T18:33:08.452Z,25.00
2018-06-05T18:35:39.915Z,24.90
2018-06-05T18:38:11.244Z,24.90
2018-06-05T18:40:42.434Z,24.80
2018-06-05T18:43:14.919Z,24.80
2018-06-05T18:45:47.648Z,24.80
2018-06-05T18:48:19.934Z,24.50
2018-06-05T18:50:53.720Z,24.40
2018-06-05T18:53:26.217Z,24.30
2018-06-05T18:55:58.006Z,24.20
2018-06-05T18:58:30.299Z,24.10
2018-06-05T19:01:02.276Z,24.00
2018-06-05T19:03:34.269Z,23.90
2018-06-05T19:06:06.380Z,23.80
2018-06-05T19:11:11.715Z,23.60
2018-06-05T19:13:44.345Z,23.60
2018-06-05T19:16:16.762Z,23.60
2018-06-05T19:21:19.036Z,23.60
2018-06-05T19:23:50.209Z,23.60
2018-06-05T19:26:22.273Z,23.60
2018-06-05T19:28:54.179Z,23.60
2018-06-05T19:31:27.560Z,23.60
2018-06-05T19:33:59.357Z,23.60
2018-06-05T19:36:31.875Z,23.50
2018-06-05T19:39:04.367Z,23.50
2018-06-05T19:41:37.643Z,23.40
2018-06-05T19:44:10.716Z,23.40
2018-06-05T19:46:43.204Z,23.40
2018-06-05T19:49:17.995Z,23.30
2018-06-05T19:51:49.430Z,23.30
2018-06-05T19:54:21.903Z,22.80
2018-06-05T19:56:53.642Z,22.70
2018-06-05T19:59:25.720Z,22.60
2018-06-05T20:01:58.388Z,22.60
2018-06-05T20:04:29.838Z,22.70
2018-06-05T20:07:03.213Z,22.70
2018-06-05T20:09:35.771Z,22.60
2018-06-05T20:12:08.198Z,22.60
2018-06-05T20:14:40.617Z,22.50
2018-06-05T20:17:13.309Z,22.60
2018-06-05T20:19:45.608Z,22.50
2018-06-05T20:22:17.034Z,22.50
2018-06-05T20:24:49.596Z,22.50
2018-06-05T20:27:21.067Z,22.40
2018-06-05T20:29:53.575Z,22.40
2018-06-05T20:32:26.142Z,22.40
2018-06-05T20:34:57.831Z,22.20
2018-06-05T20:37:30.811Z,22.20
2018-06-05T20:40:03.985Z,22.10
2018-06-05T20:42:36.915Z,22.10
2018-06-05T20:45:10.588Z,22.10
2018-06-05T20:47:44.218Z,22.00
2018-06-05T20:50:16.258Z,22.00
2018-06-05T20:52:48.205Z,21.90
2018-06-05T20:55:20.493Z,21.80
2018-06-05T20:57:52.268Z,21.80
2018-06-05T21:05:25.858Z,21.50
2018-06-05T21:07:57.324Z,21.40
2018-06-05T21:10:28.595Z,21.40
2018-06-05T21:12:59.988Z,21.30
2018-06-05T21:15:33.906Z,21.20
2018-06-05T21:18:06.400Z,21.20
2018-06-05T21:20:39.158Z,21.10
2018-06-05T21:23:11.201Z,21.00
2018-06-05T21:25:42.732Z,21.00
2018-06-05T21:28:14.383Z,20.70
2018-06-05T21:30:46.228Z,20.60
2018-06-05T21:33:19.014Z,20.40
2018-06-05T21:35:53.539Z,20.20
2018-06-05T21:38:25.063Z,20.00
2018-06-05T21:40:57.926Z,20.00
2018-06-05T21:43:29.474Z,20.00
2018-06-05T21:48:33.199Z,20.00
2018-06-05T21:51:05.568Z,20.00
2018-06-05T21:53:36.677Z,19.90
2018-06-05T21:56:08.436Z,19.90
2018-06-05T21:58:39.815Z,19.80
2018-06-05T22:01:11.979Z,19.70
2018-06-05T22:03:43.915Z,19.70
2018-06-05T22:06:16.086Z,19.70
2018-06-05T22:08:48.133Z,19.70
2018-06-05T22:11:19.392Z,19.60
2018-06-05T22:13:50.817Z,19.60
2018-06-05T22:16:22.103Z,19.60
2018-06-05T22:18:53.394Z,19.50
2018-06-05T22:21:26.043Z,19.40
2018-06-05T22:23:57.301Z,19.40
2018-06-05T22:26:28.685Z,19.40
2018-06-05T22:29:00.524Z,19.30
2018-06-05T22:31:31.529Z,19.20
2018-06-05T22:34:02.937Z,19.30
2018-06-05T22:39:07.096Z,19.00
2018-06-05T22:41:39.535Z,19.00
2018-06-05T22:44:11.019Z,18.90
2018-06-05T22:46:42.346Z,18.90
2018-06-05T22:49:14.450Z,18.80
2018-06-05T22:51:45.860Z,18.70
2018-06-05T22:54:18.357Z,18.60
2018-06-05T22:56:50.806Z,18.60
2018-06-05T22:59:22.178Z,18.60
2018-06-05T23:01:53.610Z,18.50
2018-06-05T23:04:26.622Z,18.40
2018-06-05T23:06:58.087Z,18.40
2018-06-05T23:09:29.380Z,18.50
2018-06-05T23:12:01.581Z,18.50
2018-06-05T23:14:32.595Z,18.50
2018-06-05T23:17:03.916Z,18.60
2018-06-05T23:19:35.052Z,18.60
2018-06-05T23:22:05.960Z,18.60
2018-06-05T23:24:37.756Z,18.50
2018-06-05T23:27:09.010Z,18.40
2018-06-05T23:29:41.085Z,18.40
2018-06-05T23:32:12.858Z,18.30
2018-06-05T23:34:43.939Z,18.20
2018-06-05T23:37:16.454Z,18.10
2018-06-05T23:39:47.632Z,18.00
2018-06-05T23:42:18.647Z,18.00
2018-06-05T23:44:50.193Z,18.00
2018-06-05T23:47:22.386Z,18.00
2018-06-05T23:49:53.540Z,17.90
2018-06-05T23:52:25.024Z,17.70
2018-06-05T23:54:56.299Z,17.50
2018-06-05T23:57:27.323Z,17.30
2018-06-05T23:59:58.596Z,17.30
